Time;durP1;ratioP1;P1;durP2;ratioP2;P2;SDS_P1;SDS_P2;PMS_P1;PMS_P2;Temp;Humidity;BMP_temperature;BMP_pressure;BME280_temperature;BME280_humidity;BME280_pressure;Samples;Min_cycle;Max_cycle;Signal;HPM_P1;HPM_P2
2024/03/11 00:01:17;;;;;;;0.73;0.73;;;9.20;99.90;;;;;;10491894;28;20212;-81
2024/03/11 00:06:20;;;;;;;1.00;1.00;;;9.20;99.90;;;;;;10540057;28;20218;-81
2024/03/11 00:11:24;;;;;;;1.00;1.00;;;9.20;99.90;;;;;;10522597;28;20208;-81
2024/03/11 00:16:30;;;;;;;0.70;0.70;;;9.10;99.90;;;;;;10529071;28;20228;-81
2024/03/11 00:21:32;;;;;;;1.10;1.10;;;9.10;99.90;;;;;;10548174;28;20189;-80
2024/03/11 00:26:35;;;;;;;1.10;1.10;;;9.10;99.90;;;;;;10495722;28;20457;-81
2024/03/11 00:31:39;;;;;;;0.90;0.90;;;9.10;99.90;;;;;;10531592;28;20220;-81
2024/03/11 00:36:41;;;;;;;0.70;0.70;;;9.10;99.90;;;;;;10520315;28;20223;-81
2024/03/11 00:41:43;;;;;;;0.80;0.80;;;9.10;99.90;;;;;;10515130;28;20196;-81
2024/03/11 00:46:48;;;;;;;0.70;0.70;;;9.10;99.90;;;;;;10516875;28;20261;-81
2024/03/11 00:51:51;;;;;;;0.70;0.70;;;9.10;99.90;;;;;;10522390;28;20211;-81
2024/03/11 00:56:53;;;;;;;0.80;0.80;;;9.20;99.90;;;;;;10538122;28;20212;-81
2024/03/11 01:01:58;;;;;;;0.70;0.70;;;9.20;99.90;;;;;;10529250;28;20733;-81
2024/03/11 01:07:01;;;;;;;0.70;0.70;;;9.20;99.90;;;;;;10509465;28;20227;-81
2024/03/11 01:12:03;;;;;;;0.70;0.70;;;9.10;99.90;;;;;;10534196;28;20223;-81
2024/03/11 01:17:07;;;;;;;0.80;0.80;;;9.10;99.90;;;;;;10517618;28;20238;-81
2024/03/11 01:22:10;;;;;;;0.83;0.83;;;9.10;99.90;;;;;;10525099;28;20656;-80
2024/03/11 01:27:14;;;;;;;0.60;0.60;;;9.10;99.90;;;;;;10516186;28;20216;-81
2024/03/11 01:32:18;;;;;;;0.60;0.60;;;9.10;99.90;;;;;;10526229;28;20212;-80
2024/03/11 01:37:22;;;;;;;0.80;0.80;;;9.10;99.90;;;;;;10529794;28;20238;-80
2024/03/11 01:42:24;;;;;;;0.60;0.60;;;9.10;99.90;;;;;;10501660;28;20204;-81
2024/03/11 01:47:28;;;;;;;0.60;0.60;;;9.10;99.90;;;;;;10508831;28;20216;-81
2024/03/11 01:52:33;;;;;;;0.60;0.60;;;9.00;99.90;;;;;;10514221;28;20670;-81
2024/03/11 01:57:36;;;;;;;0.70;0.70;;;9.00;99.90;;;;;;10539277;28;20726;-81
2024/03/11 02:02:40;;;;;;;0.80;0.80;;;8.90;99.90;;;;;;10495410;28;20583;-81
2024/03/11 02:07:44;;;;;;;0.83;0.83;;;8.90;99.90;;;;;;10514999;28;20689;-80
2024/03/11 02:12:46;;;;;;;0.80;0.80;;;8.90;99.90;;;;;;10505797;28;20212;-80
2024/03/11 02:17:50;;;;;;;0.90;0.90;;;8.90;99.90;;;;;;10502653;28;20681;-81
2024/03/11 02:22:54;;;;;;;0.70;0.70;;;8.80;99.90;;;;;;10504458;28;20189;-81
2024/03/11 02:27:59;;;;;;;0.70;0.70;;;8.80;99.90;;;;;;10507995;28;20227;-81
2024/03/11 02:33:01;;;;;;;0.70;0.70;;;8.80;99.90;;;;;;10539222;28;20245;-81
2024/03/11 02:38:04;;;;;;;0.70;0.70;;;8.70;99.90;;;;;;10513088;28;20239;-81
2024/03/11 02:43:07;;;;;;;0.60;0.60;;;8.70;99.90;;;;;;10540131;28;20671;-81
2024/03/11 02:48:10;;;;;;;0.70;0.70;;;8.70;99.90;;;;;;10527275;28;20212;-81
2024/03/11 02:53:13;;;;;;;0.60;0.60;;;8.70;99.90;;;;;;10531657;28;20223;-81
2024/03/11 02:58:17;;;;;;;0.50;0.50;;;8.70;99.90;;;;;;10526307;28;20216;-80
2024/03/11 03:03:19;;;;;;;0.60;0.60;;;8.60;99.90;;;;;;10506366;28;20196;-81
2024/03/11 03:08:21;;;;;;;0.60;0.60;;;8.60;99.90;;;;;;10519613;28;20219;-81
2024/03/11 03:13:25;;;;;;;0.50;0.50;;;8.50;99.90;;;;;;10508504;28;20219;-80
2024/03/11 03:18:28;;;;;;;0.70;0.70;;;8.50;99.90;;;;;;10502677;28;20224;-81
2024/03/11 03:23:30;;;;;;;0.80;0.80;;;8.40;99.90;;;;;;10522812;28;20231;-80
2024/03/11 03:28:34;;;;;;;0.50;0.50;;;8.40;99.90;;;;;;10537090;28;20224;-80
2024/03/11 03:33:37;;;;;;;0.50;0.50;;;8.30;99.90;;;;;;10505860;28;20224;-81
2024/03/11 03:38:39;;;;;;;0.70;0.70;;;8.30;99.90;;;;;;10540180;22;20642;-73
2024/03/11 03:43:43;;;;;;;0.60;0.60;;;8.30;99.90;;;;;;10542974;28;20229;-76
2024/03/11 03:48:46;;;;;;;0.53;0.53;;;8.30;99.90;;;;;;10531428;28;20220;-77
2024/03/11 03:53:49;;;;;;;0.70;0.70;;;8.30;99.90;;;;;;10522209;28;20227;-74
2024/03/11 03:58:53;;;;;;;0.60;0.60;;;8.30;99.90;;;;;;10518115;28;20242;-76
2024/03/11 04:03:55;;;;;;;0.53;0.53;;;8.20;99.90;;;;;;10505263;28;20192;-76
2024/03/11 04:08:57;;;;;;;1.30;1.30;;;8.10;99.90;;;;;;10518580;28;20246;-75
2024/03/11 04:14:01;;;;;;;0.80;0.80;;;8.10;99.90;;;;;;10500599;28;20208;-77
2024/03/11 04:19:04;;;;;;;0.70;0.70;;;8.10;99.90;;;;;;10512335;28;20273;-76
2024/03/11 04:24:07;;;;;;;0.90;0.90;;;8.10;99.90;;;;;;10497919;28;20197;-75
2024/03/11 04:29:10;;;;;;;0.77;0.77;;;8.00;99.90;;;;;;10503861;28;20222;-77
2024/03/11 04:34:13;;;;;;;0.80;0.80;;;8.00;99.90;;;;;;10477920;28;20565;-76
2024/03/11 04:39:15;;;;;;;0.83;0.83;;;7.90;99.90;;;;;;10521007;28;20277;-75
2024/03/11 04:44:19;;;;;;;0.87;0.87;;;7.80;99.90;;;;;;10519155;28;20205;-76
2024/03/11 04:49:21;;;;;;;0.80;0.80;;;7.80;99.90;;;;;;10528391;28;20270;-76
2024/03/11 04:54:24;;;;;;;0.70;0.70;;;7.70;99.90;;;;;;10506646;28;20266;-76
2024/03/11 04:59:28;;;;;;;0.90;0.90;;;7.70;99.90;;;;;;10527134;28;20228;-76
2024/03/11 05:04:30;;;;;;;0.70;0.70;;;7.60;99.90;;;;;;10533923;28;20204;-77
2024/03/11 05:09:33;;;;;;;0.50;0.50;;;7.60;99.90;;;;;;10501226;28;20281;-77
2024/03/11 05:14:38;;;;;;;0.80;0.80;;;7.60;99.90;;;;;;10514051;28;20224;-76
2024/03/11 05:19:40;;;;;;;0.90;0.90;;;7.60;99.90;;;;;;10521975;28;20254;-76
2024/03/11 05:24:42;;;;;;;0.70;0.70;;;7.50;99.90;;;;;;10525276;28;20196;-76
2024/03/11 05:29:46;;;;;;;0.70;0.70;;;7.60;99.90;;;;;;10500347;28;20225;-76
2024/03/11 05:34:48;;;;;;;0.60;0.60;;;7.60;99.90;;;;;;10524740;28;20688;-76
2024/03/11 05:39:53;;;;;;;1.03;1.03;;;7.60;99.90;;;;;;10535422;28;20273;-74
2024/03/11 05:44:56;;;;;;;0.70;0.70;;;7.60;99.90;;;;;;10502899;28;20212;-77
2024/03/11 05:50:00;;;;;;;0.60;0.60;;;7.70;99.90;;;;;;10519087;28;20763;-76
2024/03/11 05:55:11;;;;;;;0.40;0.40;;;7.70;99.90;;;;;;10507920;28;20216;-77
2024/03/11 06:00:16;;;;;;;0.70;0.70;;;7.70;99.90;;;;;;10523030;28;20215;-75
2024/03/11 06:05:33;;;;;;;0.60;0.60;;;7.60;99.90;;;;;;10509497;28;20188;-75
2024/03/11 06:10:36;;;;;;;0.70;0.70;;;7.60;99.90;;;;;;10517189;28;20265;-75
2024/03/11 06:15:39;;;;;;;0.60;0.60;;;7.60;99.90;;;;;;10494665;28;20281;-74
2024/03/11 06:20:42;;;;;;;0.60;0.60;;;7.60;99.90;;;;;;10515159;28;20215;-74
2024/03/11 06:25:45;;;;;;;0.60;0.60;;;7.60;99.90;;;;;;10515901;28;20680;-73
2024/03/11 06:30:49;;;;;;;0.50;0.50;;;7.60;99.90;;;;;;10498425;28;20689;-74
2024/03/11 06:35:52;;;;;;;0.60;0.60;;;7.60;99.90;;;;;;10504097;28;20724;-75
2024/03/11 06:40:54;;;;;;;0.60;0.60;;;7.70;99.90;;;;;;10521253;28;20254;-75
2024/03/11 06:45:57;;;;;;;0.50;0.50;;;7.70;99.90;;;;;;10507943;28;20188;-74
2024/03/11 06:51:00;;;;;;;0.50;0.50;;;7.70;99.90;;;;;;10520683;28;20231;-75
2024/03/11 06:56:02;;;;;;;0.40;0.40;;;7.80;99.90;;;;;;10498299;28;20709;-75
2024/03/11 07:01:07;;;;;;;0.40;0.40;;;7.90;99.90;;;;;;10500534;28;20224;-76
2024/03/11 07:06:09;;;;;;;0.50;0.50;;;8.10;99.90;;;;;;10510497;28;20189;-76
2024/03/11 07:11:14;;;;;;;0.50;0.50;;;8.30;99.90;;;;;;10482856;28;20224;-75
2024/03/11 07:16:18;;;;;;;0.40;0.40;;;8.50;99.90;;;;;;10522043;28;20219;-74
2024/03/11 07:21:27;;;;;;;0.40;0.40;;;8.70;99.90;;;;;;10487373;28;20216;-74
2024/03/11 07:26:30;;;;;;;0.40;0.40;;;8.80;99.90;;;;;;10517502;28;20671;-74
2024/03/11 07:31:33;;;;;;;0.50;0.50;;;8.90;99.90;;;;;;10515858;28;20226;-74
2024/03/11 07:36:36;;;;;;;0.43;0.43;;;8.90;99.90;;;;;;10504352;28;20781;-75
2024/03/11 07:41:39;;;;;;;0.57;0.57;;;8.90;99.90;;;;;;10499563;28;20204;-74
2024/03/11 07:46:43;;;;;;;0.50;0.50;;;9.00;99.90;;;;;;10504656;28;20262;-75
2024/03/11 07:51:46;;;;;;;0.50;0.50;;;9.10;99.60;;;;;;10516999;28;20204;-75
2024/03/11 07:56:48;;;;;;;0.50;0.50;;;9.10;99.70;;;;;;10505068;28;20271;-75
2024/03/11 08:01:52;;;;;;;0.40;0.40;;;9.30;99.30;;;;;;10516626;28;20196;-75
2024/03/11 08:06:55;;;;;;;0.47;0.47;;;9.40;99.80;;;;;;10525732;28;20220;-75
2024/03/11 08:11:57;;;;;;;0.40;0.40;;;9.60;99.70;;;;;;10487877;28;20603;-74
2024/03/11 08:17:06;;;;;;;0.50;0.50;;;9.80;99.70;;;;;;10520611;28;20216;-75
2024/03/11 08:22:09;;;;;;;0.40;0.40;;;9.90;99.50;;;;;;10515578;28;20311;-74
2024/03/11 08:27:15;;;;;;;0.50;0.50;;;10.10;99.10;;;;;;10513423;28;20219;-74
2024/03/11 08:32:19;;;;;;;0.40;0.40;;;10.20;99.40;;;;;;10508334;28;20672;-73
2024/03/11 08:37:21;;;;;;;0.40;0.40;;;10.30;99.50;;;;;;10513220;28;20250;-75
2024/03/11 08:42:26;;;;;;;0.40;0.40;;;10.50;98.90;;;;;;10522419;28;20207;-75
2024/03/11 08:47:29;;;;;;;0.40;0.40;;;10.60;98.40;;;;;;10508129;28;20895;-75
2024/03/11 08:52:33;;;;;;;0.40;0.40;;;10.80;98.30;;;;;;10521724;28;20192;-75
2024/03/11 08:57:37;;;;;;;0.40;0.40;;;10.90;98.30;;;;;;10523833;28;20246;-76
2024/03/11 09:02:41;;;;;;;0.30;0.30;;;11.00;98.30;;;;;;10513691;28;20208;-75
2024/03/11 09:07:45;;;;;;;0.40;0.40;;;11.10;98.00;;;;;;10520366;28;20262;-74
2024/03/11 09:12:49;;;;;;;0.30;0.30;;;11.20;97.50;;;;;;10527964;28;20261;-75
2024/03/11 09:17:54;;;;;;;0.40;0.40;;;11.40;97.70;;;;;;10523156;28;20215;-74
2024/03/11 09:22:57;;;;;;;0.33;0.33;;;11.50;97.20;;;;;;10504826;28;20255;-75
2024/03/11 09:28:01;;;;;;;0.40;0.40;;;11.70;97.50;;;;;;10498369;28;20266;-75
2024/03/11 09:33:05;;;;;;;0.40;0.40;;;11.90;97.70;;;;;;10522554;28;20195;-76
2024/03/11 09:38:08;;;;;;;0.40;0.40;;;12.10;97.00;;;;;;10546267;22;20227;-80
2024/03/11 09:43:17;;;;;;;0.40;0.40;;;12.30;96.30;;;;;;10568100;28;20192;-80
2024/03/11 09:48:23;;;;;;;0.40;0.40;;;12.40;96.80;;;;;;10554129;28;20250;-81
2024/03/11 09:53:26;;;;;;;0.40;0.40;;;12.60;96.60;;;;;;10561891;28;20202;-81
2024/03/11 09:58:29;;;;;;;0.30;0.30;;;12.80;95.70;;;;;;10564171;28;20231;-80
2024/03/11 10:03:33;;;;;;;0.40;0.40;;;12.90;95.90;;;;;;10561619;28;20519;-78
2024/03/11 10:08:37;;;;;;;0.40;0.40;;;13.10;95.10;;;;;;10561538;28;20709;-78
2024/03/11 10:13:39;;;;;;;0.40;0.40;;;13.10;95.00;;;;;;10547641;28;20188;-78
2024/03/11 10:18:53;;;;;;;0.50;0.50;;;13.20;95.00;;;;;;10564853;28;20275;-79
2024/03/11 10:23:59;;;;;;;0.50;0.50;;;13.10;94.30;;;;;;10581222;28;20586;-78
2024/03/11 10:29:01;;;;;;;0.50;0.50;;;13.00;93.50;;;;;;10558738;28;20577;-79
2024/03/11 10:34:13;;;;;;;0.40;0.40;;;12.90;93.30;;;;;;10543516;28;20752;-79
2024/03/11 10:39:25;;;;;;;0.50;0.50;;;12.80;93.30;;;;;;10559903;28;20227;-79
2024/03/11 10:44:30;;;;;;;0.40;0.40;;;12.70;93.90;;;;;;10525515;28;20211;-82
2024/03/11 10:49:34;;;;;;;0.40;0.40;;;12.70;93.70;;;;;;10575849;28;20692;-79
2024/03/11 10:54:39;;;;;;;0.40;0.40;;;12.70;93.60;;;;;;10558935;28;20208;-80
2024/03/11 10:59:47;;;;;;;0.40;0.40;;;12.60;93.00;;;;;;10553008;28;20273;-81
2024/03/11 11:04:53;;;;;;;0.40;0.40;;;12.50;93.70;;;;;;10563611;28;20199;-81
2024/03/11 11:10:01;;;;;;;0.40;0.40;;;12.40;93.10;;;;;;10560561;28;20216;-81
2024/03/11 11:15:05;;;;;;;0.50;0.50;;;12.40;93.20;;;;;;10545855;28;20242;-81
2024/03/11 11:20:29;;;;;;;0.40;0.40;;;12.40;93.60;;;;;;10528285;28;20277;-79
2024/03/11 11:25:39;;;;;;;0.40;0.40;;;12.50;92.60;;;;;;10568661;28;20191;-81
2024/03/11 11:30:43;;;;;;;0.40;0.40;;;12.50;92.50;;;;;;10535867;28;20219;-79
2024/03/11 11:35:47;;;;;;;0.40;0.40;;;12.60;92.50;;;;;;10549433;28;20258;-81
2024/03/11 11:40:50;;;;;;;0.40;0.40;;;12.90;91.50;;;;;;10557131;28;20235;-81
2024/03/11 11:45:55;;;;;;;0.30;0.30;;;13.20;90.40;;;;;;10550786;28;20199;-80
2024/03/11 11:50:59;;;;;;;0.40;0.40;;;13.40;90.70;;;;;;10557072;28;20215;-80
2024/03/11 11:56:03;;;;;;;0.40;0.40;;;13.70;90.90;;;;;;10542395;28;20224;-81
2024/03/11 12:01:07;;;;;;;0.40;0.40;;;13.90;90.60;;;;;;10564307;28;20567;-80
2024/03/11 12:06:24;;;;;;;0.50;0.50;;;14.00;90.90;;;;;;10572603;28;20195;-79
2024/03/11 12:11:27;;;;;;;0.40;0.40;;;14.30;87.40;;;;;;10551922;28;20245;-81
2024/03/11 12:16:30;;;;;;;0.40;0.40;;;14.30;88.80;;;;;;10551866;28;20223;-81
2024/03/11 12:21:35;;;;;;;0.40;0.40;;;14.30;89.10;;;;;;10568787;28;20223;-81
2024/03/11 12:26:38;;;;;;;0.40;0.40;;;14.10;88.90;;;;;;10553285;28;20214;-80
2024/03/11 12:31:41;;;;;;;0.40;0.40;;;14.00;89.00;;;;;;10568737;28;20219;-81
2024/03/11 12:36:47;;;;;;;0.40;0.40;;;14.00;88.80;;;;;;10565303;28;20218;-81
2024/03/11 12:41:49;;;;;;;0.40;0.40;;;14.20;88.30;;;;;;10567638;28;20228;-80
2024/03/11 12:46:54;;;;;;;0.30;0.30;;;14.40;86.10;;;;;;10557111;28;20248;-81
2024/03/11 12:52:08;;;;;;;0.30;0.30;;;14.50;85.00;;;;;;10560010;28;20198;-82
2024/03/11 12:57:13;;;;;;;0.30;0.30;;;14.40;85.90;;;;;;10552576;28;20255;-82
2024/03/11 13:02:21;;;;;;;0.30;0.30;;;14.20;85.50;;;;;;10552710;28;20211;-78
2024/03/11 13:07:25;;;;;;;0.30;0.30;;;14.00;83.10;;;;;;10555016;28;20211;-82
2024/03/11 13:12:28;;;;;;;0.40;0.40;;;13.90;85.70;;;;;;10560236;28;20196;-81
2024/03/11 13:17:32;;;;;;;0.30;0.30;;;13.80;83.10;;;;;;10577804;28;20231;-80
2024/03/11 13:22:36;;;;;;;0.30;0.30;;;13.90;85.40;;;;;;10558339;28;20317;-81
2024/03/11 13:27:39;;;;;;;0.40;0.40;;;14.00;85.70;;;;;;10546455;28;20216;-79
2024/03/11 13:32:41;;;;;;;0.40;0.40;;;14.20;84.10;;;;;;10575289;28;20563;-81
2024/03/11 13:37:45;;;;;;;0.40;0.40;;;14.20;86.50;;;;;;10570894;28;20226;-81
2024/03/11 13:42:47;;;;;;;0.30;0.30;;;14.30;80.50;;;;;;10572509;28;20623;-79
2024/03/11 13:47:50;;;;;;;0.30;0.30;;;14.30;78.10;;;;;;10541756;28;20216;-81
2024/03/11 13:52:54;;;;;;;0.30;0.30;;;14.20;80.00;;;;;;10555782;28;20196;-81
2024/03/11 13:57:57;;;;;;;0.30;0.30;;;14.20;82.60;;;;;;10567458;28;20570;-80
2024/03/11 14:03:01;;;;;;;0.30;0.30;;;14.10;83.60;;;;;;10581142;28;20203;-81
2024/03/11 14:08:06;;;;;;;0.30;0.30;;;14.00;84.00;;;;;;10577769;28;20214;-81
2024/03/11 14:13:09;;;;;;;0.40;0.40;;;14.00;84.10;;;;;;10569760;28;20244;-82
2024/03/11 14:18:11;;;;;;;0.30;0.30;;;14.10;86.10;;;;;;10561671;28;20770;-81
2024/03/11 14:23:15;;;;;;;0.30;0.30;;;14.00;86.80;;;;;;10577387;28;20187;-80
2024/03/11 14:28:17;;;;;;;0.40;0.40;;;14.00;86.10;;;;;;10536775;28;20223;-81
2024/03/11 14:33:20;;;;;;;0.50;0.50;;;14.00;87.40;;;;;;10570514;28;20264;-81
2024/03/11 14:38:23;;;;;;;0.50;0.50;;;14.00;86.30;;;;;;10580846;28;20219;-80
2024/03/11 14:43:29;;;;;;;0.50;0.50;;;14.00;85.40;;;;;;10556766;28;20257;-78
2024/03/11 14:48:32;;;;;;;0.50;0.50;;;14.10;87.70;;;;;;10548194;28;20253;-79
2024/03/11 14:53:36;;;;;;;0.50;0.50;;;14.10;86.80;;;;;;10540363;28;20225;-79
2024/03/11 14:58:38;;;;;;;0.50;0.50;;;14.00;86.10;;;;;;10556844;28;20232;-81
2024/03/11 15:03:41;;;;;;;0.40;0.40;;;14.00;85.80;;;;;;10535227;28;20210;-80
2024/03/11 15:08:44;;;;;;;0.50;0.50;;;13.90;87.60;;;;;;10561640;28;20219;-81
2024/03/11 15:13:47;;;;;;;0.50;0.50;;;13.70;90.00;;;;;;10563069;28;20188;-81
2024/03/11 15:18:52;;;;;;;0.50;0.50;;;13.60;87.90;;;;;;10563252;28;20400;-80
2024/03/11 15:23:56;;;;;;;0.50;0.50;;;13.60;89.30;;;;;;10558766;28;20196;-82
2024/03/11 15:28:58;;;;;;;0.50;0.50;;;13.60;90.30;;;;;;10569810;28;20211;-81
2024/03/11 15:34:01;;;;;;;0.50;0.50;;;13.60;90.00;;;;;;10559494;28;20196;-82
2024/03/11 15:39:05;;;;;;;0.40;0.40;;;13.60;89.60;;;;;;10569571;22;20227;-82
2024/03/11 15:44:09;;;;;;;0.40;0.40;;;13.60;89.40;;;;;;10557894;28;20195;-82
2024/03/11 15:49:13;;;;;;;0.50;0.50;;;13.60;89.00;;;;;;10559588;28;20212;-82
2024/03/11 15:54:17;;;;;;;0.40;0.40;;;13.50;90.10;;;;;;10538768;28;20689;-82
2024/03/11 15:59:19;;;;;;;0.50;0.50;;;13.50;90.30;;;;;;10515910;28;20212;-82
2024/03/11 16:04:21;;;;;;;0.50;0.50;;;13.40;90.70;;;;;;10527207;28;20200;-82
2024/03/11 16:10:06;;;;;;;0.50;0.50;;;13.30;91.20;;;;;;10517490;28;20274;-82
2024/03/11 16:14:57;;;;;;;0.40;0.40;;;13.30;91.70;;;;;;10505930;28;20196;-82
2024/03/11 16:19:59;;;;;;;0.50;0.50;;;13.20;91.70;;;;;;10512452;28;20223;-81
2024/03/11 16:25:05;;;;;;;0.50;0.50;;;13.20;91.80;;;;;;10504498;28;20234;-81
2024/03/11 16:30:14;;;;;;;0.40;0.40;;;13.20;92.10;;;;;;10509278;28;20209;-81
2024/03/11 16:35:19;;;;;;;0.50;0.50;;;13.10;92.30;;;;;;10525423;28;20892;-82
2024/03/11 16:40:25;;;;;;;0.50;0.50;;;13.10;92.00;;;;;;10526974;28;20227;-82
2024/03/11 16:45:28;;;;;;;0.40;0.40;;;13.00;92.30;;;;;;10510891;28;20196;-82
2024/03/11 16:50:31;;;;;;;0.50;0.50;;;12.90;92.40;;;;;;10530031;28;20231;-82
2024/03/11 16:55:35;;;;;;;0.50;0.50;;;12.90;92.80;;;;;;10540048;28;20199;-81
2024/03/11 17:00:39;;;;;;;0.40;0.40;;;12.90;93.00;;;;;;10524970;28;20226;-81
2024/03/11 17:05:42;;;;;;;0.40;0.40;;;12.80;93.30;;;;;;10533571;28;20615;-81
2024/03/11 17:10:47;;;;;;;0.50;0.50;;;12.80;93.50;;;;;;10526908;28;20212;-82
2024/03/11 17:15:50;;;;;;;0.40;0.40;;;12.70;93.00;;;;;;10530781;28;20197;-83
2024/03/11 17:20:54;;;;;;;0.50;0.50;;;12.70;93.90;;;;;;10529669;28;20208;-80
2024/03/11 17:25:59;;;;;;;0.40;0.40;;;12.60;94.20;;;;;;10542644;28;20196;-80
2024/03/11 17:31:02;;;;;;;0.53;0.53;;;12.50;93.60;;;;;;10545064;28;20219;-83
2024/03/11 17:36:06;;;;;;;0.50;0.50;;;12.40;93.40;;;;;;10558710;28;20262;-82
2024/03/11 17:41:10;;;;;;;0.40;0.40;;;12.30;93.00;;;;;;10567941;28;20223;-82
2024/03/11 17:46:12;;;;;;;0.50;0.50;;;12.30;93.30;;;;;;10560814;28;20184;-82
2024/03/11 17:51:15;;;;;;;0.50;0.50;;;12.20;93.10;;;;;;10513148;28;20239;-82
2024/03/11 17:56:19;;;;;;;0.40;0.40;;;12.10;93.20;;;;;;10528111;28;20213;-81
2024/03/11 18:01:21;;;;;;;0.50;0.50;;;12.10;93.30;;;;;;10538915;28;20806;-81
2024/03/11 18:06:23;;;;;;;0.50;0.50;;;12.00;93.60;;;;;;10531174;28;20213;-82
2024/03/11 18:11:27;;;;;;;0.50;0.50;;;11.90;93.90;;;;;;10509028;28;20250;-82
2024/03/11 18:16:29;;;;;;;0.60;0.60;;;11.80;94.20;;;;;;10538701;28;20216;-83
2024/03/11 18:21:32;;;;;;;0.50;0.50;;;11.70;94.40;;;;;;10556118;28;20223;-83
2024/03/11 18:26:37;;;;;;;0.60;0.60;;;11.60;94.70;;;;;;10538873;28;20192;-80
2024/03/11 18:31:42;;;;;;;0.60;0.60;;;11.50;95.10;;;;;;10507513;28;20294;-81
2024/03/11 18:36:44;;;;;;;0.50;0.50;;;11.30;95.10;;;;;;10496720;28;20223;-81
2024/03/11 18:41:50;;;;;;;0.60;0.60;;;11.20;95.00;;;;;;10532740;28;20221;-81
2024/03/11 18:46:53;;;;;;;0.50;0.50;;;11.10;95.10;;;;;;10512091;28;20658;-81
2024/03/11 18:51:56;;;;;;;0.50;0.50;;;11.00;95.10;;;;;;10529676;28;20264;-81
2024/03/11 18:57:03;;;;;;;0.50;0.50;;;10.90;94.90;;;;;;10545883;28;20219;-81
2024/03/11 19:02:05;;;;;;;0.50;0.50;;;10.70;94.90;;;;;;10533133;28;20193;-81
2024/03/11 19:07:11;;;;;;;0.50;0.50;;;10.70;95.00;;;;;;10567184;28;20180;-82
2024/03/11 19:12:15;;;;;;;0.40;0.40;;;10.60;95.00;;;;;;10568310;28;20289;-82
2024/03/11 19:17:18;;;;;;;0.50;0.50;;;10.50;94.90;;;;;;10547503;28;20211;-81
2024/03/11 19:22:21;;;;;;;0.40;0.40;;;10.40;95.00;;;;;;10539480;28;20222;-80
2024/03/11 19:27:25;;;;;;;0.40;0.40;;;10.30;94.80;;;;;;10516118;28;20204;-80
2024/03/11 19:32:28;;;;;;;0.50;0.50;;;10.30;94.50;;;;;;10512899;28;20196;-80
2024/03/11 19:37:48;;;;;;;0.50;0.50;;;10.20;94.60;;;;;;10523613;28;20220;-81
2024/03/11 19:43:05;;;;;;;0.50;0.50;;;10.10;94.70;;;;;;10536636;28;20211;-82
2024/03/11 19:49:04;;;;;;;0.40;0.40;;;10.00;94.80;;;;;;10524979;28;20591;-81
2024/03/11 19:54:41;;;;;;;0.47;0.47;;;10.00;94.80;;;;;;10530931;28;20213;-81
2024/03/11 20:00:39;;;;;;;0.50;0.50;;;9.90;95.30;;;;;;10490087;28;20247;-80
2024/03/11 20:06:21;;;;;;;0.50;0.50;;;9.80;95.50;;;;;;10505140;28;20203;-81
2024/03/11 20:12:00;;;;;;;0.50;0.50;;;9.80;95.40;;;;;;10513593;28;20219;-81
2024/03/11 20:17:32;;;;;;;0.50;0.50;;;9.70;95.60;;;;;;10528009;28;20215;-81
2024/03/11 20:22:48;;;;;;;0.50;0.50;;;9.70;95.70;;;;;;10503600;28;20630;-81
2024/03/11 20:27:56;;;;;;;0.50;0.50;;;9.70;95.60;;;;;;10502466;28;20223;-82
2024/03/11 20:33:03;;;;;;;0.50;0.50;;;9.70;95.70;;;;;;10525141;28;20192;-81
2024/03/11 20:38:05;;;;;;;0.50;0.50;;;9.70;95.80;;;;;;10525237;28;20220;-81
2024/03/11 20:43:09;;;;;;;0.60;0.60;;;9.70;95.80;;;;;;10525628;28;20760;-81
2024/03/11 20:48:13;;;;;;;0.60;0.60;;;9.70;95.90;;;;;;10492330;28;20212;-80
2024/03/11 20:53:15;;;;;;;0.57;0.57;;;9.80;96.00;;;;;;10534832;28;20917;-80
2024/03/11 20:58:20;;;;;;;0.50;0.50;;;9.90;96.10;;;;;;10487188;28;20239;-80
2024/03/11 21:03:24;;;;;;;0.50;0.50;;;9.90;96.10;;;;;;10522116;28;20201;-81
2024/03/11 21:08:26;;;;;;;0.60;0.60;;;9.90;96.30;;;;;;10528944;28;20219;-80
2024/03/11 21:13:28;;;;;;;0.60;0.60;;;10.00;95.70;;;;;;10527133;28;20488;-80
2024/03/11 21:18:33;;;;;;;0.50;0.50;;;9.90;96.30;;;;;;10518386;28;20221;-80
2024/03/11 21:23:39;;;;;;;0.60;0.60;;;9.90;96.30;;;;;;10532472;28;20204;-81
2024/03/11 21:28:41;;;;;;;0.60;0.60;;;9.80;96.60;;;;;;10499998;28;20727;-81
2024/03/11 21:33:45;;;;;;;0.30;0.30;;;9.70;96.70;;;;;;10543468;28;20889;-81
2024/03/11 21:38:48;;;;;;;0.40;0.40;;;9.60;96.70;;;;;;10512106;28;20549;-81
2024/03/11 21:43:50;;;;;;;0.40;0.40;;;9.60;96.80;;;;;;10528818;28;20619;-81
2024/03/11 21:48:54;;;;;;;0.40;0.40;;;9.70;96.70;;;;;;10561472;22;20239;-77
2024/03/11 21:53:56;;;;;;;0.47;0.47;;;9.70;96.70;;;;;;10562940;28;20200;-77
2024/03/11 21:58:59;;;;;;;0.50;0.50;;;9.70;96.80;;;;;;10525811;28;20228;-76
2024/03/11 22:04:02;;;;;;;0.40;0.40;;;9.80;96.70;;;;;;10511026;28;20270;-77
2024/03/11 22:09:09;;;;;;;0.50;0.50;;;9.80;96.80;;;;;;10498973;28;20685;-77
2024/03/11 22:14:12;;;;;;;0.40;0.40;;;9.80;96.90;;;;;;10498781;28;20193;-77
2024/03/11 22:19:16;;;;;;;0.50;0.50;;;9.90;96.90;;;;;;10510740;28;20257;-77
2024/03/11 22:24:19;;;;;;;0.43;0.43;;;9.90;97.00;;;;;;10517480;28;20204;-76
2024/03/11 22:29:21;;;;;;;0.40;0.40;;;10.00;96.40;;;;;;10524668;28;20338;-76
2024/03/11 22:34:26;;;;;;;0.40;0.40;;;10.10;96.20;;;;;;10522596;28;20196;-77
2024/03/11 22:39:28;;;;;;;0.50;0.50;;;10.20;96.10;;;;;;10510651;28;20231;-77
2024/03/11 22:44:30;;;;;;;0.40;0.40;;;10.30;96.00;;;;;;10508055;28;20200;-77
2024/03/11 22:49:36;;;;;;;0.60;0.60;;;10.30;96.10;;;;;;10530333;28;20227;-77
2024/03/11 22:54:39;;;;;;;0.50;0.50;;;10.30;96.10;;;;;;10526175;28;20193;-77
2024/03/11 22:59:41;;;;;;;0.50;0.50;;;10.40;96.30;;;;;;10510029;28;20254;-78
2024/03/11 23:04:48;;;;;;;0.40;0.40;;;10.40;95.90;;;;;;10503901;28;20552;-78
2024/03/11 23:09:51;;;;;;;0.50;0.50;;;10.30;95.90;;;;;;10503508;28;20213;-77
2024/03/11 23:14:55;;;;;;;0.50;0.50;;;10.30;96.00;;;;;;10527380;28;20218;-77
2024/03/11 23:19:59;;;;;;;0.50;0.50;;;10.30;96.00;;;;;;10505297;28;20220;-78
2024/03/11 23:25:03;;;;;;;0.50;0.50;;;10.20;96.00;;;;;;10493208;28;20204;-76
2024/03/11 23:30:13;;;;;;;0.60;0.60;;;10.10;96.10;;;;;;10503229;28;20241;-78
2024/03/11 23:35:16;;;;;;;0.50;0.50;;;10.00;96.10;;;;;;10514516;28;20212;-77
2024/03/11 23:40:20;;;;;;;0.60;0.60;;;9.90;96.60;;;;;;10523882;28;20220;-76
2024/03/11 23:45:22;;;;;;;0.50;0.50;;;9.80;96.70;;;;;;10531875;28;20289;-77
2024/03/11 23:50:26;;;;;;;0.60;0.60;;;9.70;96.80;;;;;;10530442;28;20196;-75
2024/03/11 23:55:29;;;;;;;0.60;0.60;;;9.60;96.90;;;;;;10493673;28;20228;-77
